Aérodrome :
LOGIN :

S'inscrire | Disclaimer

   EN    FR    IT 

 










Légende :    VFR   VFR Marginal   IFR   IFR Intensif   IFR Très Intensif
Visi : 
Plafond : 
>= 8 km
>= 3000ft
5 à 8 km
1000 à 3000 ft
1500m à 5 km
500 à 1000 ft
800 à 1500m
200 à 500 ft
< 800m
< 200 ft
Symboles :   Orages  Brouillard  Fortes neiges  Fortes précipitations  Vent > 20 kt
SIGMETs :   Divers  Orages  Givrage  Turbulence  Onde Orograph.  Cendres Volcan.






- Altitude de l'aérodrome : 1475 ft


LSZC - Buochs Stans

DERNIER METAR :
  • 022050Z AUTO 26005KT 180V290 CAVOK 17/07 Q1013

METARs EXPIRÉS :
  • 022020Z AUTO 24005KT 200V260 CAVOK 17/07 Q1013
  • 021950Z AUTO 29005KT 230V330 CAVOK 19/07 Q1013
  • 021920Z AUTO 28006KT 250V320 CAVOK 19/07 Q1013
  • 021850Z AUTO 29005KT CAVOK 20/08 Q1013
  • 021820Z AUTO 33004KT CAVOK 21/06 Q1013

TAF TAF LSZC
Valide du 02 à 15h jusqu'au 03 à 00h UTC


021425Z 0215/0224 VRB03KT CAVOK
TEMPO 0215/0218 9999 FEW060



MET'MAP, la Météo Aéronautique d'un coup d'oeil ! - Copyright ORBIFLY Décembre 2007 - Disclaimer

ORBIFLY MET'MAP TEAM :

Programmation & Développement : Alexandra Zaïnal
Sur une idée originale de : Baudouin d'Aumeries
Assistance à la programmation : Marc-Olivier Méhu
Soutien technique & logistique : Manuel Goepfert

Contact : metmap@orbifly.com




SOURCES & CREDITS :

   NOAA